createdAt,value
2017-06-11T00:00:54.613Z,1017.61
2017-06-11T00:02:04.553Z,1017.63
2017-06-11T00:03:14.658Z,1017.61
2017-06-11T00:04:24.609Z,1017.62
2017-06-11T00:05:34.558Z,1017.63
2017-06-11T00:06:44.190Z,1017.6
2017-06-11T00:07:54.457Z,1017.6
2017-06-11T00:09:04.412Z,1017.6
2017-06-11T00:10:14.674Z,1017.58
2017-06-11T00:11:24.000Z,1017.59
2017-06-11T00:12:34.269Z,1017.56
2017-06-11T00:13:43.910Z,1017.56
2017-06-11T00:14:54.018Z,1017.56
2017-06-11T00:16:03.972Z,1017.53
2017-06-11T00:17:14.242Z,1017.54
2017-06-11T00:18:24.195Z,1017.5
2017-06-11T00:19:34.149Z,1017.5
2017-06-11T00:20:44.108Z,1017.47
2017-06-11T00:21:53.751Z,1017.49
2017-06-11T00:23:03.383Z,1017.47
2017-06-11T00:24:13.339Z,1017.46
2017-06-11T00:25:23.610Z,1017.49
2017-06-11T00:26:33.558Z,1017.46
2017-06-11T00:27:43.198Z,1017.47
2017-06-11T00:28:53.461Z,1017.45
2017-06-11T00:30:03.730Z,1017.45
2017-06-11T00:31:13.684Z,1017.41
2017-06-11T00:32:24.098Z,1017.47
2017-06-11T00:33:34.046Z,1017.48
2017-06-11T00:34:44.313Z,1017.47
2017-06-11T00:35:54.271Z,1017.47
2017-06-11T00:37:04.561Z,1017.41
2017-06-11T00:38:14.834Z,1017.45
2017-06-11T00:39:25.100Z,1017.44
2017-06-11T00:40:35.084Z,1017.46
2017-06-11T00:41:45.038Z,1017.44
2017-06-11T00:42:55.301Z,1017.48
2017-06-11T00:44:05.256Z,1017.47
2017-06-11T00:45:14.889Z,1017.47
2017-06-11T00:46:25.155Z,1017.45
2017-06-11T00:47:35.123Z,1017.4
2017-06-11T00:48:45.388Z,1017.41
2017-06-11T00:49:55.806Z,1017.37
2017-06-11T00:51:06.074Z,1017.38
2017-06-11T00:52:16.341Z,1017.39
2017-06-11T00:53:26.608Z,1017.38
2017-06-11T00:54:36.554Z,1017.42
2017-06-11T00:55:46.499Z,1017.38
2017-06-11T00:56:56.448Z,1017.37
2017-06-11T00:58:06.712Z,1017.34
2017-06-11T00:59:16.976Z,1017.38
2017-06-11T01:00:27.237Z,1017.35
2017-06-11T01:01:37.494Z,1017.34
2017-06-11T01:02:47.443Z,1017.35
2017-06-11T01:03:57.398Z,1017.29
2017-06-11T01:05:06.719Z,1017.33
2017-06-11T01:06:16.988Z,1017.34
2017-06-11T01:07:26.476Z,1017.32
2017-06-11T01:08:36.747Z,1017.32
2017-06-11T01:09:47.011Z,1017.32
2017-06-11T01:10:56.648Z,1017.32
2017-06-11T01:12:06.917Z,1017.29
2017-06-11T01:13:16.872Z,1017.27
2017-06-11T01:14:27.141Z,1017.27
2017-06-11T01:15:37.091Z,1017.22
2017-06-11T01:16:47.357Z,1017.21
2017-06-11T01:17:57.310Z,1017.24
2017-06-11T01:19:07.271Z,1017.23
2017-06-11T01:20:17.254Z,1017.23
2017-06-11T01:21:27.510Z,1017.25
2017-06-11T01:22:37.462Z,1017.25
2017-06-11T01:23:47.419Z,1017.24
2017-06-11T01:24:57.053Z,1017.29
2017-06-11T01:26:07.348Z,1017.23
2017-06-11T01:27:17.317Z,1017.25
2017-06-11T01:28:27.269Z,1017.24
2017-06-11T01:29:36.911Z,1017.22
2017-06-11T01:30:46.385Z,1017.21
2017-06-11T01:31:56.020Z,1017.21
2017-06-11T01:33:05.978Z,1017.19
2017-06-11T01:34:16.245Z,1017.17
2017-06-11T01:35:26.519Z,1017.15
2017-06-11T01:36:36.787Z,1017.16
2017-06-11T01:37:46.742Z,1017.15
2017-06-11T01:38:56.688Z,1017.14
2017-06-11T01:40:06.968Z,1017.1
2017-06-11T01:41:16.609Z,1017.09
2017-06-11T01:42:26.572Z,1017.09
2017-06-11T01:43:36.523Z,1017.07
2017-06-11T01:44:46.822Z,1017.15
2017-06-11T01:45:57.086Z,1017.13
2017-06-11T01:47:07.355Z,1017.13
2017-06-11T01:48:17.776Z,1017.19
2017-06-11T01:49:27.733Z,1017.16
2017-06-11T01:50:37.999Z,1017.21
2017-06-11T01:51:47.948Z,1017.16
2017-06-11T01:52:58.214Z,1017.17
2017-06-11T01:54:07.852Z,1017.13
2017-06-11T01:55:18.122Z,1017.14
2017-06-11T01:56:28.388Z,1017.13
2017-06-11T01:57:38.656Z,1017.14
2017-06-11T01:58:48.917Z,1017.17
2017-06-11T01:59:58.874Z,1017.18
2017-06-11T02:01:08.827Z,1017.15
2017-06-11T02:02:18.781Z,1017.16
2017-06-11T02:03:28.101Z,1017.15
2017-06-11T02:04:37.736Z,1017.19
2017-06-11T02:05:47.833Z,1017.14
2017-06-11T02:06:58.116Z,1017.16
2017-06-11T02:08:08.387Z,1017.18
2017-06-11T02:09:18.656Z,1017.15
2017-06-11T02:10:28.926Z,1017.15
2017-06-11T02:11:39.196Z,1017.13
2017-06-11T02:12:49.467Z,1017.14
2017-06-11T02:13:59.733Z,1017.16
2017-06-11T02:15:09.369Z,1017.15
2017-06-11T02:16:19.643Z,1017.15
2017-06-11T02:17:29.589Z,1017.17
2017-06-11T02:18:39.852Z,1017.15
2017-06-11T02:19:49.488Z,1017.17
2017-06-11T02:20:59.758Z,1017.13
2017-06-11T02:22:09.715Z,1017.14
2017-06-11T02:23:19.664Z,1017.15
2017-06-11T02:24:29.937Z,1017.12
2017-06-11T02:25:39.892Z,1017.14
2017-06-11T02:26:49.876Z,1017.12
2017-06-11T02:27:59.513Z,1017.13
2017-06-11T02:29:09.464Z,1017.11
2017-06-11T02:30:19.429Z,1017.1
2017-06-11T02:31:29.695Z,1017.09
2017-06-11T02:32:39.968Z,1017.07
2017-06-11T02:33:49.925Z,1017.07
2017-06-11T02:35:00.032Z,1017.11
2017-06-11T02:36:09.672Z,1017.11
2017-06-11T02:37:19.627Z,1017.06
2017-06-11T02:38:29.585Z,1017.05
2017-06-11T02:39:39.539Z,1017.05
2017-06-11T02:40:49.180Z,1017.06
2017-06-11T02:41:59.463Z,1017.08
2017-06-11T02:43:09.728Z,1017.13
2017-06-11T02:44:19.363Z,1017.1
2017-06-11T02:45:29.630Z,1017.1
2017-06-11T02:46:39.895Z,1017.09
2017-06-11T02:47:49.548Z,1017.1
2017-06-11T02:48:59.498Z,1017.13
2017-06-11T02:50:09.136Z,1017.12
2017-06-11T02:51:19.397Z,1017.13
2017-06-11T02:52:29.184Z,1017.14
2017-06-11T02:53:39.451Z,1017.09
2017-06-11T02:54:49.087Z,1017.1
2017-06-11T02:55:59.351Z,1017.1
2017-06-11T02:57:09.618Z,1017.12
2017-06-11T02:58:19.880Z,1017.11
2017-06-11T02:59:28.894Z,1017.09
2017-06-11T03:00:38.844Z,1017.09
2017-06-11T03:01:48.166Z,1017.08
2017-06-11T03:02:58.433Z,1017.12
2017-06-11T03:04:08.386Z,1017.09
2017-06-11T03:05:18.336Z,1017.13
2017-06-11T03:06:28.286Z,1017.12
2017-06-11T03:07:38.551Z,1017.13
2017-06-11T03:08:48.849Z,1017.14
2017-06-11T03:09:58.960Z,1017.16
2017-06-11T03:11:08.592Z,1017.12
2017-06-11T03:12:18.858Z,1017.15
2017-06-11T03:13:29.118Z,1017.14
2017-06-11T03:14:39.074Z,1017.15
2017-06-11T03:15:49.345Z,1017.12
2017-06-11T03:16:59.295Z,1017.14
2017-06-11T03:18:09.564Z,1017.15
2017-06-11T03:19:19.511Z,1017.14
2017-06-11T03:20:29.458Z,1017.18
2017-06-11T03:21:39.097Z,1017.15
2017-06-11T03:22:49.054Z,1017.13
2017-06-11T03:23:59.330Z,1017.16
2017-06-11T03:25:09.286Z,1017.12
2017-06-11T03:26:18.923Z,1017.09
2017-06-11T03:27:29.180Z,1017.09
2017-06-11T03:28:38.818Z,1017.11
2017-06-11T03:29:48.143Z,1017.09
2017-06-11T03:30:58.090Z,1017.09
2017-06-11T03:32:08.042Z,1017.07
2017-06-11T03:33:18.147Z,1017.11
2017-06-11T03:34:28.097Z,1017.07
2017-06-11T03:35:38.372Z,1017.06
2017-06-11T03:36:48.331Z,1017.11
2017-06-11T03:37:58.282Z,1017.1
2017-06-11T03:39:08.254Z,1017.13
2017-06-11T03:40:18.207Z,1017.09
2017-06-11T03:41:28.501Z,1017.1
2017-06-11T03:42:38.770Z,1017.09
2017-06-11T03:43:48.719Z,1017.11
2017-06-11T03:44:58.667Z,1017.04
2017-06-11T03:46:08.942Z,1017.07
2017-06-11T03:47:19.206Z,1017.07
2017-06-11T03:48:29.470Z,1017.08
2017-06-11T03:49:39.419Z,1017.12
2017-06-11T03:50:49.404Z,1017.15
2017-06-11T03:51:59.364Z,1017.14
2017-06-11T03:53:09.316Z,1017.14
2017-06-11T03:54:18.953Z,1017.14
2017-06-11T03:55:28.905Z,1017.11
2017-06-11T03:56:38.856Z,1017.13
2017-06-11T03:57:48.498Z,1017.18
2017-06-11T03:58:58.769Z,1017.16
2017-06-11T04:00:08.717Z,1017.19
2017-06-11T04:01:18.989Z,1017.26
2017-06-11T04:02:28.783Z,1017.26
2017-06-11T04:03:38.764Z,1017.27
2017-06-11T04:04:49.024Z,1017.26
2017-06-11T04:05:58.975Z,1017.25
2017-06-11T04:07:08.935Z,1017.28
2017-06-11T04:08:18.891Z,1017.27
2017-06-11T04:09:28.528Z,1017.21
2017-06-11T04:10:38.795Z,1017.19
2017-06-11T04:11:48.745Z,1017.18
2017-06-11T04:12:58.381Z,1017.17
2017-06-11T04:14:08.334Z,1017.2
2017-06-11T04:15:18.603Z,1017.18
2017-06-11T04:16:28.566Z,1017.15
2017-06-11T04:17:38.527Z,1017.15
2017-06-11T04:18:48.791Z,1017.18
2017-06-11T04:19:58.583Z,1017.16
2017-06-11T04:21:08.848Z,1017.14
2017-06-11T04:22:18.481Z,1017.15
2017-06-11T04:23:28.746Z,1017.19
2017-06-11T04:24:38.692Z,1017.17
2017-06-11T04:25:48.672Z,1017.2
2017-06-11T04:26:58.632Z,1017.24
2017-06-11T04:28:08.898Z,1017.18
2017-06-11T04:29:19.167Z,1017.16
2017-06-11T04:30:29.431Z,1017.18
2017-06-11T04:31:39.383Z,1017.19
2017-06-11T04:32:49.646Z,1017.18
2017-06-11T04:33:59.593Z,1017.18
2017-06-11T04:35:09.858Z,1017.16
2017-06-11T04:36:19.505Z,1017.15
2017-06-11T04:37:29.605Z,1017.15
2017-06-11T04:38:39.242Z,1017.19
2017-06-11T04:39:49.191Z,1017.19
2017-06-11T04:40:59.465Z,1017.19
2017-06-11T04:42:09.105Z,1017.22
2017-06-11T04:43:19.367Z,1017.24
2017-06-11T04:44:29.318Z,1017.25
2017-06-11T04:45:39.586Z,1017.25
2017-06-11T04:46:49.846Z,1017.25
2017-06-11T04:48:00.141Z,1017.23
2017-06-11T04:49:09.779Z,1017.24
2017-06-11T04:50:19.413Z,1017.26
2017-06-11T04:51:29.365Z,1017.26
2017-06-11T04:52:39.312Z,1017.25
2017-06-11T04:53:49.264Z,1017.25
2017-06-11T04:54:59.692Z,1017.22
2017-06-11T04:56:09.962Z,1017.25
2017-06-11T04:57:20.236Z,1017.28
2017-06-11T04:58:30.501Z,1017.23
2017-06-11T04:59:40.770Z,1017.26
2017-06-11T05:00:50.410Z,1017.23
2017-06-11T05:02:00.381Z,1017.26
2017-06-11T05:03:10.650Z,1017.2
2017-06-11T05:04:20.910Z,1017.21
2017-06-11T05:05:30.866Z,1017.23
2017-06-11T05:06:40.822Z,1017.17
2017-06-11T05:07:51.095Z,1017.17
2017-06-11T05:09:01.354Z,1017.14
2017-06-11T05:10:10.993Z,1017.16
2017-06-11T05:11:20.942Z,1017.19
2017-06-11T05:12:31.358Z,1017.18
2017-06-11T05:13:41.316Z,1017.18
2017-06-11T05:14:51.581Z,1017.17
2017-06-11T05:16:01.857Z,1017.14
2017-06-11T05:17:11.497Z,1017.15
2017-06-11T05:18:21.443Z,1017.15
2017-06-11T05:19:31.392Z,1017.18
2017-06-11T05:20:41.341Z,1017.14
2017-06-11T05:21:51.292Z,1017.17
2017-06-11T05:23:00.934Z,1017.14
2017-06-11T05:24:11.366Z,1017.15
2017-06-11T05:25:21.641Z,1017.19
2017-06-11T05:26:31.595Z,1017.16
2017-06-11T05:27:41.543Z,1017.16
2017-06-11T05:28:51.181Z,1017.15
2017-06-11T05:30:01.441Z,1017.16
2017-06-11T05:31:11.396Z,1017.16
2017-06-11T05:32:21.665Z,1017.15
2017-06-11T05:33:31.299Z,1017.12
2017-06-11T05:34:41.561Z,1017.12
2017-06-11T05:35:51.658Z,1017.09
2017-06-11T05:37:01.933Z,1017.07
2017-06-11T05:38:11.571Z,1017.07
2017-06-11T05:39:21.837Z,1017.07
2017-06-11T05:40:31.780Z,1017.08
2017-06-11T05:41:42.042Z,1017.04
2017-06-11T05:42:51.995Z,1017.06
2017-06-11T05:44:01.965Z,1017.1
2017-06-11T05:45:11.910Z,1017.08
2017-06-11T05:46:22.172Z,1017.06
2017-06-11T05:47:31.964Z,1017.04
2017-06-11T05:48:42.227Z,1017.03
2017-06-11T05:49:52.522Z,1017.04
2017-06-11T05:51:02.793Z,1017.05
2017-06-11T05:52:13.060Z,1017.06
2017-06-11T05:53:23.323Z,1017.06
2017-06-11T05:54:33.585Z,1017.06
2017-06-11T05:55:43.543Z,1017.07
2017-06-11T05:56:53.494Z,1017.06
2017-06-11T05:58:03.754Z,1017.09
2017-06-11T05:59:13.702Z,1017.01
2017-06-11T06:00:23.658Z,1017.05
2017-06-11T06:01:33.307Z,1016.99
2017-06-11T06:02:43.260Z,1017.05
2017-06-11T06:03:53.530Z,1017.04
2017-06-11T06:05:03.003Z,1017.01
2017-06-11T06:06:13.266Z,1016.97
2017-06-11T06:07:22.908Z,1017.01
2017-06-11T06:08:33.180Z,1017
2017-06-11T06:09:42.819Z,1016.96
2017-06-11T06:10:52.455Z,1017
2017-06-11T06:12:02.755Z,1016.96
2017-06-11T06:13:12.394Z,1017
2017-06-11T06:14:22.340Z,1016.99
2017-06-11T06:15:31.979Z,1017
2017-06-11T06:16:41.617Z,1017
2017-06-11T06:17:51.883Z,1017
2017-06-11T06:19:01.838Z,1017
2017-06-11T06:20:12.112Z,1017
2017-06-11T06:21:21.430Z,1016.98
2017-06-11T06:22:31.846Z,1016.99
2017-06-11T06:23:42.118Z,1017
2017-06-11T06:24:52.070Z,1017.01
2017-06-11T06:26:02.340Z,1016.95
2017-06-11T06:27:12.295Z,1016.97
2017-06-11T06:28:22.559Z,1016.94
2017-06-11T06:29:32.511Z,1016.93
2017-06-11T06:30:42.465Z,1016.9
2017-06-11T06:31:52.416Z,1016.89
2017-06-11T06:33:02.058Z,1016.9
2017-06-11T06:34:12.475Z,1016.93
2017-06-11T06:35:22.428Z,1016.92
2017-06-11T06:36:32.695Z,1016.94
2017-06-11T06:37:42.648Z,1016.89
2017-06-11T06:38:52.916Z,1016.87
2017-06-11T06:40:02.553Z,1016.91
2017-06-11T06:41:12.500Z,1016.91
2017-06-11T06:42:22.135Z,1016.93
2017-06-11T06:43:32.083Z,1016.95
2017-06-11T06:44:42.029Z,1016.98
2017-06-11T06:45:52.297Z,1017
2017-06-11T06:47:02.249Z,1016.97
2017-06-11T06:48:12.514Z,1016.99
2017-06-11T06:49:22.786Z,1016.95
2017-06-11T06:50:33.050Z,1016.92
2017-06-11T06:51:43.153Z,1016.93
2017-06-11T06:52:53.100Z,1016.94
2017-06-11T06:54:03.376Z,1016.95
2017-06-11T06:55:13.666Z,1016.95
2017-06-11T06:56:23.616Z,1016.95
2017-06-11T06:57:33.564Z,1016.95
2017-06-11T06:58:43.828Z,1016.96
2017-06-11T06:59:54.128Z,1017.05
2017-06-11T07:01:04.398Z,1017.04
2017-06-11T07:02:14.358Z,1017.02
2017-06-11T07:03:24.775Z,1017.01
2017-06-11T07:04:34.728Z,1017.02
2017-06-11T07:05:44.999Z,1017.02
2017-06-11T07:06:55.265Z,1017.03
2017-06-11T07:08:05.219Z,1016.99
2017-06-11T07:09:15.328Z,1017.02
2017-06-11T07:10:25.595Z,1017.02
2017-06-11T07:11:35.856Z,1017.03
2017-06-11T07:12:45.502Z,1017.01
2017-06-11T07:13:55.763Z,1016.96
2017-06-11T07:15:06.031Z,1016.98
2017-06-11T07:16:15.985Z,1016.94
2017-06-11T07:17:25.934Z,1016.95
2017-06-11T07:18:35.894Z,1016.93
2017-06-11T07:19:45.546Z,1016.92
2017-06-11T07:20:54.861Z,1016.94
2017-06-11T07:22:05.130Z,1016.94
2017-06-11T07:23:15.396Z,1016.89
2017-06-11T07:24:25.029Z,1016.87
2017-06-11T07:25:35.297Z,1016.88
2017-06-11T07:26:45.716Z,1016.86
2017-06-11T07:27:55.668Z,1016.85
2017-06-11T07:29:05.300Z,1016.84
2017-06-11T07:30:15.246Z,1016.86
2017-06-11T07:31:24.886Z,1016.82
2017-06-11T07:32:35.153Z,1016.84
2017-06-11T07:33:45.109Z,1016.79
2017-06-11T07:34:55.389Z,1016.76
2017-06-11T07:36:05.338Z,1016.76
2017-06-11T07:37:15.614Z,1016.71
2017-06-11T07:38:25.245Z,1016.69
2017-06-11T07:39:35.199Z,1016.69
2017-06-11T07:40:45.150Z,1016.73
2017-06-11T07:41:54.786Z,1016.71
2017-06-11T07:43:04.741Z,1016.68
2017-06-11T07:44:15.157Z,1016.7
2017-06-11T07:45:25.426Z,1016.69
2017-06-11T07:46:35.688Z,1016.67
2017-06-11T07:47:45.331Z,1016.66
2017-06-11T07:48:55.285Z,1016.64
2017-06-11T07:50:04.925Z,1016.63
2017-06-11T07:51:15.191Z,1016.61
2017-06-11T07:52:25.459Z,1016.63
2017-06-11T07:53:35.742Z,1016.68
2017-06-11T07:54:45.694Z,1016.66
2017-06-11T07:55:55.956Z,1016.66
2017-06-11T07:57:06.224Z,1016.68
2017-06-11T07:58:15.542Z,1016.65
2017-06-11T07:59:25.494Z,1016.62
2017-06-11T08:00:35.445Z,1016.71
2017-06-11T08:01:45.717Z,1016.67
2017-06-11T08:02:54.727Z,1016.66
2017-06-11T08:04:04.679Z,1016.63
2017-06-11T08:05:14.626Z,1016.64
2017-06-11T08:06:24.580Z,1016.7
2017-06-11T08:07:34.848Z,1016.66
2017-06-11T08:08:45.119Z,1016.66
2017-06-11T08:09:55.385Z,1016.61
2017-06-11T08:11:05.808Z,1016.63
2017-06-11T08:12:15.762Z,1016.65
2017-06-11T08:13:25.398Z,1016.61
2017-06-11T08:14:35.354Z,1016.61
2017-06-11T08:15:45.307Z,1016.6
2017-06-11T08:16:55.256Z,1016.62
2017-06-11T08:18:05.519Z,1016.62
2017-06-11T08:19:15.792Z,1016.62
2017-06-11T08:20:26.062Z,1016.6
2017-06-11T08:21:36.014Z,1016.63
2017-06-11T08:22:46.438Z,1016.62
2017-06-11T08:23:56.117Z,1016.63
2017-06-11T08:25:06.081Z,1016.55
2017-06-11T08:26:16.066Z,1016.57
2017-06-11T08:27:26.022Z,1016.6
2017-06-11T08:28:35.654Z,1016.59
2017-06-11T08:29:45.292Z,1016.55
2017-06-11T08:30:54.938Z,1016.57
2017-06-11T08:32:04.887Z,1016.49
2017-06-11T08:33:14.842Z,1016.53
2017-06-11T08:34:25.113Z,1016.53
2017-06-11T08:35:35.397Z,1016.43
2017-06-11T08:36:45.028Z,1016.48
2017-06-11T08:37:55.292Z,1016.49
2017-06-11T08:39:05.589Z,1016.46
2017-06-11T08:40:15.695Z,1016.47
2017-06-11T08:41:25.959Z,1016.48
2017-06-11T08:42:35.600Z,1016.42
2017-06-11T08:43:45.232Z,1016.43
2017-06-11T08:44:55.497Z,1016.4
2017-06-11T08:46:05.130Z,1016.38
2017-06-11T08:47:15.390Z,1016.41
2017-06-11T08:48:25.650Z,1016.38
2017-06-11T08:49:35.287Z,1016.37
2017-06-11T08:50:44.952Z,1016.35
2017-06-11T08:51:55.222Z,1016.37
2017-06-11T08:53:05.491Z,1016.35
2017-06-11T08:54:15.450Z,1016.35
2017-06-11T08:55:24.768Z,1016.31
2017-06-11T08:56:34.727Z,1016.29
2017-06-11T08:57:44.678Z,1016.32
2017-06-11T08:58:54.943Z,1016.32
2017-06-11T09:00:04.265Z,1016.3
2017-06-11T09:01:14.530Z,1016.29
2017-06-11T09:02:24.791Z,1016.31
2017-06-11T09:03:35.203Z,1016.31
2017-06-11T09:04:45.467Z,1016.27
2017-06-11T09:05:55.119Z,1016.26
2017-06-11T09:07:04.439Z,1016.23
2017-06-11T09:08:14.706Z,1016.25
2017-06-11T09:09:24.970Z,1016.28
2017-06-11T09:10:35.238Z,1016.29
2017-06-11T09:11:44.956Z,1016.24
2017-06-11T09:12:55.265Z,1016.28
2017-06-11T09:14:05.552Z,1016.27
2017-06-11T09:15:16.623Z,1016.22
2017-06-11T09:16:27.695Z,1016.23
2017-06-11T09:17:37.658Z,1016.21
2017-06-11T09:18:48.726Z,1016.19
2017-06-11T09:19:59.728Z,1016.2
2017-06-11T09:21:10.536Z,1016.22
2017-06-11T09:22:21.394Z,1016.15
2017-06-11T09:23:31.541Z,1016.17
2017-06-11T09:24:42.033Z,1016.16
2017-06-11T09:25:52.186Z,1016.12
2017-06-11T09:27:03.088Z,1016.16
2017-06-11T09:28:13.241Z,1016.1
2017-06-11T09:29:24.101Z,1016.07
2017-06-11T09:30:34.956Z,1016.01
2017-06-11T09:31:45.100Z,1015.98
2017-06-11T09:32:55.524Z,1016.03
2017-06-11T09:34:05.805Z,1016.03
2017-06-11T09:35:16.082Z,1016.01
2017-06-11T09:36:25.516Z,1016.05
2017-06-11T09:37:35.830Z,1016.01
2017-06-11T09:38:45.664Z,1015.99
2017-06-11T09:39:56.152Z,1015.96
2017-06-11T09:41:06.657Z,1016
2017-06-11T09:42:16.814Z,1015.92
2017-06-11T09:43:26.609Z,1015.95
2017-06-11T09:44:37.351Z,1015.87
2017-06-11T09:45:48.111Z,1015.92
2017-06-11T09:46:59.253Z,1015.89
2017-06-11T09:48:10.020Z,1015.85
2017-06-11T09:49:20.779Z,1015.84
2017-06-11T09:50:31.593Z,1015.83
2017-06-11T09:51:42.732Z,1015.76
2017-06-11T09:52:53.870Z,1015.79
2017-06-11T09:54:04.634Z,1015.71
2017-06-11T09:55:15.393Z,1015.72
2017-06-11T09:56:26.159Z,1015.73
2017-06-11T09:57:36.855Z,1015.68
2017-06-11T09:58:47.928Z,1015.68
2017-06-11T09:59:59.035Z,1015.65
2017-06-11T10:01:10.171Z,1015.67
2017-06-11T10:02:21.266Z,1015.68
2017-06-11T10:03:31.877Z,1015.64
2017-06-11T10:04:42.476Z,1015.63
2017-06-11T10:05:52.716Z,1015.57
2017-06-11T10:07:03.257Z,1015.6
2017-06-11T10:08:13.837Z,1015.6
2017-06-11T10:09:24.253Z,1015.56
2017-06-11T10:10:34.992Z,1015.55
2017-06-11T10:11:45.302Z,1015.49
2017-06-11T10:12:55.714Z,1015.52
2017-06-11T10:14:05.941Z,1015.52
2017-06-11T10:15:16.271Z,1015.36
2017-06-11T10:16:26.084Z,1015.41
2017-06-11T10:17:36.604Z,1015.41
2017-06-11T10:18:46.761Z,1015.4
2017-06-11T10:19:57.289Z,1015.42
2017-06-11T10:21:08.083Z,1015.43
2017-06-11T10:22:19.172Z,1015.42
2017-06-11T10:23:30.221Z,1015.37
2017-06-11T10:24:41.291Z,1015.41
2017-06-11T10:25:52.416Z,1015.33
2017-06-11T10:27:03.479Z,1015.31
2017-06-11T10:28:14.181Z,1015.32
2017-06-11T10:29:24.538Z,1015.31
2017-06-11T10:30:35.245Z,1015.27
2017-06-11T10:31:45.973Z,1015.3
2017-06-11T10:32:56.296Z,1015.34
2017-06-11T10:34:06.970Z,1015.35
2017-06-11T10:35:18.033Z,1015.32
2017-06-11T10:36:29.090Z,1015.31
2017-06-11T10:37:39.972Z,1015.26
2017-06-11T10:38:50.252Z,1015.23
2017-06-11T10:40:01.089Z,1015.31
2017-06-11T10:41:11.966Z,1015.27
2017-06-11T10:42:22.460Z,1015.28
2017-06-11T10:43:33.292Z,1015.25
2017-06-11T10:44:43.576Z,1015.3
2017-06-11T10:45:54.145Z,1015.29
2017-06-11T10:47:04.622Z,1015.27
2017-06-11T10:48:14.773Z,1015.23
2017-06-11T10:49:24.472Z,1015.22
2017-06-11T10:50:34.603Z,1015.2
2017-06-11T10:51:45.031Z,1015.22
2017-06-11T10:52:55.179Z,1015.17
2017-06-11T10:54:05.250Z,1015.26
2017-06-11T10:55:15.660Z,1015.24
2017-06-11T10:56:25.839Z,1015.23
2017-06-11T10:57:36.003Z,1015.24
2017-06-11T10:58:46.525Z,1015.14
2017-06-11T10:59:57.010Z,1015.2
2017-06-11T11:01:06.859Z,1015.16
2017-06-11T11:02:17.314Z,1015.08
2017-06-11T11:03:27.430Z,1015.05
2017-06-11T11:04:37.924Z,1015.05
2017-06-11T11:05:48.028Z,1015.05
2017-06-11T11:06:57.792Z,1015.11
2017-06-11T11:08:07.938Z,1015.12
2017-06-11T11:09:17.419Z,1015.11
2017-06-11T11:10:27.392Z,1015.06
2017-06-11T11:11:38.345Z,1014.98
2017-06-11T11:12:49.510Z,1014.96
2017-06-11T11:14:00.666Z,1014.91
2017-06-11T11:15:11.459Z,1014.92
2017-06-11T11:16:22.227Z,1014.87
2017-06-11T11:17:33.068Z,1014.9
2017-06-11T11:18:43.850Z,1014.84
2017-06-11T11:19:54.649Z,1014.87
2017-06-11T11:21:05.808Z,1014.81
2017-06-11T11:22:16.909Z,1014.78
2017-06-11T11:23:27.881Z,1014.8
2017-06-11T11:24:38.250Z,1014.73
2017-06-11T11:25:48.887Z,1014.71
2017-06-11T11:26:59.158Z,1014.69
2017-06-11T11:28:09.386Z,1014.69
2017-06-11T11:29:19.996Z,1014.72
2017-06-11T11:30:30.872Z,1014.66
2017-06-11T11:31:41.285Z,1014.64
2017-06-11T11:32:51.746Z,1014.62
2017-06-11T11:34:01.344Z,1014.55
2017-06-11T11:35:11.562Z,1014.53
2017-06-11T11:36:21.595Z,1014.57
2017-06-11T11:37:32.074Z,1014.59
2017-06-11T11:38:42.513Z,1014.56
2017-06-11T11:39:52.316Z,1014.53
2017-06-11T11:41:02.341Z,1014.51
2017-06-11T11:42:12.500Z,1014.54
2017-06-11T11:43:22.339Z,1014.5
2017-06-11T11:44:32.482Z,1014.49
2017-06-11T11:45:42.303Z,1014.44
2017-06-11T11:46:52.459Z,1014.48
2017-06-11T11:48:02.283Z,1014.41
2017-06-11T11:49:12.459Z,1014.43
2017-06-11T11:50:22.627Z,1014.41
2017-06-11T11:51:33.126Z,1014.44
2017-06-11T11:52:43.633Z,1014.39
2017-06-11T11:53:53.786Z,1014.34
2017-06-11T11:55:04.267Z,1014.35
2017-06-11T11:56:14.764Z,1014.26
2017-06-11T11:57:25.269Z,1014.25
2017-06-11T11:58:35.952Z,1014.28
2017-06-11T11:59:45.819Z,1014.28
2017-06-11T12:00:55.622Z,1014.27
2017-06-11T12:02:05.759Z,1014.27
2017-06-11T12:03:16.227Z,1014.22
2017-06-11T12:04:26.718Z,1014.19
2017-06-11T12:05:36.877Z,1014.16
2017-06-11T12:06:47.042Z,1014.21
2017-06-11T12:07:57.531Z,1014.19
2017-06-11T12:09:07.682Z,1014.17
2017-06-11T12:10:18.039Z,1014.17
2017-06-11T12:11:28.537Z,1014.14
2017-06-11T12:12:39.026Z,1014.15
2017-06-11T12:13:48.504Z,1014.21
2017-06-11T12:14:58.844Z,1014.29
2017-06-11T12:16:09.275Z,1014.12
2017-06-11T12:17:19.564Z,1014.1
2017-06-11T12:18:29.371Z,1014.06
2017-06-11T12:19:39.114Z,1013.99
2017-06-11T12:20:49.508Z,1013.98
2017-06-11T12:21:59.707Z,1013.98
2017-06-11T12:23:09.415Z,1013.96
2017-06-11T12:24:19.420Z,1014.02
2017-06-11T12:25:29.207Z,1013.97
2017-06-11T12:26:38.306Z,1014.02
2017-06-11T12:27:48.662Z,1013.91
2017-06-11T12:28:58.678Z,1013.98
2017-06-11T12:30:09.080Z,1014.04
2017-06-11T12:31:19.157Z,1013.99
2017-06-11T12:32:28.634Z,1013.98
2017-06-11T12:33:38.422Z,1013.93
2017-06-11T12:34:48.216Z,1013.88
2017-06-11T12:35:58.585Z,1013.88
2017-06-11T12:37:08.761Z,1013.88
2017-06-11T12:38:19.240Z,1013.84
2017-06-11T12:39:29.083Z,1013.81
2017-06-11T12:40:39.258Z,1013.84
2017-06-11T12:41:49.411Z,1013.83
2017-06-11T12:42:59.531Z,1013.8
2017-06-11T12:44:10.000Z,1013.82
2017-06-11T12:45:20.199Z,1013.78
2017-06-11T12:46:30.715Z,1013.77
2017-06-11T12:47:41.244Z,1013.78
2017-06-11T12:48:51.394Z,1013.81
2017-06-11T12:50:01.216Z,1013.76
2017-06-11T12:51:11.044Z,1013.78
2017-06-11T12:52:21.505Z,1013.73
2017-06-11T12:53:31.646Z,1013.75
2017-06-11T12:54:41.849Z,1013.68
2017-06-11T12:55:52.511Z,1013.73
2017-06-11T12:57:03.324Z,1013.68
2017-06-11T12:58:13.823Z,1013.68
2017-06-11T12:59:24.398Z,1013.68
2017-06-11T13:00:34.952Z,1013.55
2017-06-11T13:01:45.913Z,1013.6
2017-06-11T13:02:56.900Z,1013.64
2017-06-11T13:04:07.114Z,1013.54
2017-06-11T13:05:17.324Z,1013.58
2017-06-11T13:06:27.528Z,1013.5
2017-06-11T13:07:38.072Z,1013.52
2017-06-11T13:08:48.310Z,1013.47
2017-06-11T13:09:58.577Z,1013.46
2017-06-11T13:11:08.793Z,1013.41
2017-06-11T13:12:18.922Z,1013.4
2017-06-11T13:13:29.418Z,1013.44
2017-06-11T13:14:39.604Z,1013.45
2017-06-11T13:15:49.405Z,1013.43
2017-06-11T13:16:59.518Z,1013.4
2017-06-11T13:18:09.678Z,1013.35
2017-06-11T13:19:20.160Z,1013.37
2017-06-11T13:20:30.560Z,1013.32
2017-06-11T13:21:40.913Z,1013.31
2017-06-11T13:22:50.615Z,1013.25
2017-06-11T13:24:00.981Z,1013.38
2017-06-11T13:25:11.428Z,1013.26
2017-06-11T13:26:21.531Z,1013.29
2017-06-11T13:27:31.683Z,1013.23
2017-06-11T13:28:41.848Z,1013.2
2017-06-11T13:29:51.999Z,1013.15
2017-06-11T13:31:02.487Z,1013.09
2017-06-11T13:32:12.644Z,1013.08
2017-06-11T13:33:22.798Z,1013.11
2017-06-11T13:34:32.978Z,1013.07
2017-06-11T13:35:42.834Z,1013.1
2017-06-11T13:36:53.658Z,1013.09
2017-06-11T13:38:04.761Z,1013
2017-06-11T13:39:15.558Z,1013.02
2017-06-11T13:40:26.634Z,1013.02
2017-06-11T13:41:37.038Z,1012.98
2017-06-11T13:42:48.144Z,1013.04
2017-06-11T13:43:59.239Z,1013.01
2017-06-11T13:45:09.531Z,1012.97
2017-06-11T13:46:20.586Z,1012.99
2017-06-11T13:47:31.530Z,1012.99
2017-06-11T13:48:42.182Z,1012.95
2017-06-11T13:49:53.116Z,1012.91
2017-06-11T13:51:03.385Z,1012.84
2017-06-11T13:52:14.392Z,1012.82
2017-06-11T13:53:25.127Z,1012.75
2017-06-11T13:54:35.513Z,1012.83
2017-06-11T13:55:45.593Z,1012.72
2017-06-11T13:56:56.001Z,1012.79
2017-06-11T13:58:06.406Z,1012.75
2017-06-11T13:59:16.711Z,1012.77
2017-06-11T14:00:27.180Z,1012.79
2017-06-11T14:01:37.030Z,1012.75
2017-06-11T14:02:47.167Z,1012.79
2017-06-11T14:03:57.590Z,1012.74
2017-06-11T14:05:07.637Z,1012.69
2017-06-11T14:06:17.990Z,1012.67
2017-06-11T14:07:28.077Z,1012.66
2017-06-11T14:08:38.483Z,1012.62
2017-06-11T14:09:48.565Z,1012.59
2017-06-11T14:10:57.941Z,1012.55
2017-06-11T14:12:08.450Z,1012.49